createdAt,value
2022-11-12T00:02:31.656Z,14.07
2022-11-12T00:07:53.894Z,14.25
2022-11-12T00:13:17.847Z,11.50
2022-11-12T00:18:40.024Z,12.77
2022-11-12T00:24:02.247Z,12.52
2022-11-12T00:29:25.455Z,12.27
2022-11-12T00:34:47.718Z,12.68
2022-11-12T00:40:10.539Z,13.05
2022-11-12T00:45:33.923Z,15.68
2022-11-12T00:51:01.767Z,17.27
2022-11-12T00:56:23.695Z,15.13
2022-11-12T01:01:47.162Z,13.38
2022-11-12T01:07:09.518Z,13.77
2022-11-12T01:12:32.911Z,19.33
2022-11-12T01:17:56.366Z,20.83
2022-11-12T01:23:18.288Z,23.17
2022-11-12T01:28:40.953Z,23.90
2022-11-12T01:34:06.891Z,19.35
2022-11-12T01:39:28.958Z,24.30
2022-11-12T01:44:53.583Z,21.08
2022-11-12T01:50:24.313Z,19.42
2022-11-12T01:55:46.504Z,24.60
2022-11-12T02:01:08.721Z,23.63
2022-11-12T02:06:33.426Z,19.90
2022-11-12T02:11:55.615Z,19.80
2022-11-12T02:17:18.300Z,18.45
2022-11-12T02:22:41.696Z,21.20
2022-11-12T02:28:06.435Z,14.68
2022-11-12T02:33:28.772Z,19.15
2022-11-12T02:38:52.281Z,14.18
2022-11-12T02:44:14.421Z,11.63
2022-11-12T02:49:36.464Z,12.13
2022-11-12T02:54:59.770Z,9.32
2022-11-12T03:00:21.924Z,12.80
2022-11-12T03:05:45.462Z,10.43
2022-11-12T03:11:10.994Z,11.52
2022-11-12T03:16:33.116Z,12.43
2022-11-12T03:21:55.280Z,12.35
2022-11-12T03:27:18.646Z,13.57
2022-11-12T03:32:40.698Z,15.95
2022-11-12T03:38:02.825Z,13.68
2022-11-12T03:43:26.205Z,11.05
2022-11-12T03:48:48.137Z,16.95
2022-11-12T03:54:10.414Z,17.55
2022-11-12T03:59:34.140Z,18.13
2022-11-12T04:05:12.883Z,16.90
2022-11-12T04:10:36.246Z,15.35
2022-11-12T04:16:19.501Z,17.92
2022-11-12T04:21:54.684Z,18.45
2022-11-12T04:27:19.396Z,16.15
2022-11-12T04:32:49.441Z,18.25
2022-11-12T04:38:11.718Z,18.88
2022-11-12T04:43:50.896Z,17.85
2022-11-12T04:49:14.534Z,21.30
2022-11-12T04:54:36.916Z,18.05
2022-11-12T04:59:59.439Z,16.65
2022-11-12T05:05:23.060Z,15.93
2022-11-12T05:10:46.225Z,15.10
2022-11-12T05:16:08.868Z,16.63
2022-11-12T05:21:49.653Z,16.60
2022-11-12T05:27:13.757Z,13.50
2022-11-12T05:32:35.711Z,13.68
2022-11-12T05:37:59.262Z,14.32
2022-11-12T05:43:21.601Z,14.10
2022-11-12T05:48:43.774Z,14.40
2022-11-12T05:54:07.406Z,12.02
2022-11-12T05:59:29.812Z,10.93
2022-11-12T06:04:51.991Z,10.02
2022-11-12T06:10:20.292Z,9.45
2022-11-12T06:15:42.968Z,9.75
2022-11-12T06:21:26.395Z,9.57
2022-11-12T06:26:50.166Z,9.88
2022-11-12T06:32:12.567Z,8.82
2022-11-12T06:37:34.490Z,9.05
2022-11-12T06:43:00.876Z,11.13
2022-11-12T06:48:23.205Z,10.02
2022-11-12T06:53:45.578Z,13.38
2022-11-12T06:59:09.060Z,9.75
2022-11-12T07:04:31.259Z,11.15
2022-11-12T07:13:54.058Z,8.57
2022-11-12T07:19:16.496Z,9.98
2022-11-12T07:24:38.774Z,13.77
2022-11-12T07:30:02.218Z,11.32
2022-11-12T07:35:24.549Z,9.05
2022-11-12T07:40:46.394Z,10.70
2022-11-12T07:46:12.998Z,8.40
2022-11-12T07:51:35.078Z,10.38
2022-11-12T07:56:57.081Z,9.98
2022-11-12T08:02:20.449Z,9.63
2022-11-12T08:07:42.535Z,10.73
2022-11-12T08:13:05.211Z,10.27
2022-11-12T08:18:29.865Z,8.57
2022-11-12T08:23:52.381Z,8.93
2022-11-12T08:29:14.735Z,8.25
2022-11-12T08:34:41.331Z,9.25
2022-11-12T08:40:03.954Z,8.98
2022-11-12T08:45:26.691Z,9.52
2022-11-12T08:50:49.976Z,7.45
2022-11-12T08:56:12.370Z,8.60
2022-11-12T09:01:34.470Z,8.27
2022-11-12T09:06:58.228Z,7.88
2022-11-12T09:12:20.492Z,7.70
2022-11-12T09:17:42.965Z,9.93
2022-11-12T09:23:08.418Z,7.03
2022-11-12T09:28:30.449Z,6.40
2022-11-12T09:33:52.483Z,9.63
2022-11-12T09:39:16.086Z,11.15
2022-11-12T09:44:41.636Z,9.68
2022-11-12T09:50:19.500Z,6.43
2022-11-12T09:55:45.295Z,9.55
2022-11-12T10:01:15.257Z,8.90
2022-11-12T10:06:46.878Z,9.52
2022-11-12T10:12:34.150Z,13.70
2022-11-12T10:18:05.282Z,10.20
2022-11-12T10:23:30.653Z,10.73
2022-11-12T10:29:00.256Z,8.57
2022-11-12T10:34:23.818Z,12.93
2022-11-12T10:39:47.737Z,13.15
2022-11-12T10:45:22.490Z,9.35
2022-11-12T10:50:44.959Z,11.55
2022-11-12T10:56:24.592Z,8.27
2022-11-12T11:01:56.181Z,11.30
2022-11-12T11:07:23.109Z,10.70
2022-11-12T11:12:45.577Z,7.57
2022-11-12T11:18:12.630Z,11.10
2022-11-12T11:23:41.748Z,13.23
2022-11-12T11:29:22.019Z,11.27
2022-11-12T11:34:57.844Z,9.98
2022-11-12T11:40:28.035Z,12.33
2022-11-12T11:46:01.828Z,12.48
2022-11-12T11:51:48.937Z,9.80
2022-11-12T11:57:16.709Z,12.77
2022-11-12T12:03:07.301Z,10.88
2022-11-12T12:08:45.655Z,12.93
2022-11-12T12:14:23.985Z,10.02
2022-11-12T12:19:57.055Z,13.15
2022-11-12T12:25:26.531Z,10.52
2022-11-12T12:30:53.720Z,7.55
2022-11-12T12:36:18.885Z,12.00
2022-11-12T12:41:47.801Z,8.95
2022-11-12T12:47:13.980Z,15.95
2022-11-12T12:53:00.325Z,9.20
2022-11-12T12:58:29.013Z,7.90
2022-11-12T13:03:58.336Z,10.10
2022-11-12T13:09:26.457Z,8.10
2022-11-12T13:15:08.482Z,7.18
2022-11-12T13:20:36.474Z,8.73
2022-11-12T13:26:31.108Z,9.30
2022-11-12T13:32:26.452Z,10.55
2022-11-12T13:37:52.711Z,13.23
2022-11-12T13:43:31.293Z,6.82
2022-11-12T13:48:59.987Z,9.32
2022-11-12T13:54:40.303Z,11.07
2022-11-12T14:00:26.244Z,10.90
2022-11-12T14:05:50.479Z,8.87
2022-11-12T14:11:52.140Z,11.63
2022-11-12T14:17:26.414Z,9.15
2022-11-12T14:22:49.251Z,11.40
2022-11-12T14:28:27.665Z,10.23
2022-11-12T14:33:50.356Z,11.57
2022-11-12T14:39:13.552Z,11.65
2022-11-12T14:44:39.119Z,8.98
2022-11-12T14:50:01.679Z,12.27
2022-11-12T14:55:27.608Z,10.23
2022-11-12T15:00:53.892Z,10.40
2022-11-12T15:06:22.576Z,9.27
2022-11-12T15:11:46.298Z,15.80
2022-11-12T15:17:30.309Z,16.35
2022-11-12T15:22:53.929Z,12.75
2022-11-12T15:28:22.199Z,12.57
2022-11-12T15:33:46.004Z,9.45
2022-11-12T15:39:14.653Z,14.07
2022-11-12T15:44:38.408Z,12.10
2022-11-12T15:50:02.024Z,14.95
2022-11-12T15:55:24.360Z,19.73
2022-11-12T16:00:47.302Z,21.33
2022-11-12T16:06:13.262Z,15.13
2022-11-12T16:11:38.525Z,16.70
2022-11-12T16:17:00.700Z,15.00
2022-11-12T16:22:24.684Z,14.57
2022-11-12T16:27:51.414Z,12.57
2022-11-12T16:33:16.928Z,20.92
2022-11-12T16:38:40.413Z,19.25
2022-11-12T16:44:02.776Z,27.83
2022-11-12T16:49:26.123Z,22.55
2022-11-12T16:54:49.535Z,39.70
2022-11-12T17:00:14.923Z,37.03
2022-11-12T17:05:37.105Z,33.72
2022-11-12T17:11:07.557Z,22.27
2022-11-12T17:16:29.891Z,20.40
2022-11-12T17:21:52.070Z,19.02
2022-11-12T17:27:15.511Z,17.30
2022-11-12T17:32:37.586Z,22.75
2022-11-12T17:37:59.558Z,19.35
2022-11-12T17:43:23.043Z,19.92
2022-11-12T17:48:45.416Z,23.80
2022-11-12T17:54:08.505Z,17.63
2022-11-12T17:59:31.897Z,19.88
2022-11-12T18:04:53.949Z,19.38
2022-11-12T18:10:19.562Z,20.95
2022-11-12T18:15:43.737Z,17.85
2022-11-12T18:21:06.438Z,19.73
2022-11-12T18:26:28.681Z,20.40
2022-11-12T18:31:52.367Z,21.52
2022-11-12T18:37:14.829Z,22.83
2022-11-12T18:42:37.197Z,24.60
2022-11-12T18:48:00.836Z,23.55
2022-11-12T18:53:23.002Z,25.63
2022-11-12T18:58:45.404Z,27.08
2022-11-12T19:04:12.038Z,26.85
2022-11-12T19:09:34.355Z,22.83
2022-11-12T19:14:56.487Z,22.15
2022-11-12T19:20:20.080Z,33.22
2022-11-12T19:25:42.189Z,26.60
2022-11-12T19:31:05.064Z,25.95
2022-11-12T19:36:28.811Z,26.60
2022-11-12T19:41:51.142Z,23.75
2022-11-12T19:47:13.187Z,24.35
2022-11-12T19:52:36.558Z,26.60
2022-11-12T19:57:58.472Z,25.48
2022-11-12T20:03:22.427Z,30.67
2022-11-12T20:08:46.835Z,32.53
2022-11-12T20:14:08.866Z,31.30
2022-11-12T20:19:30.855Z,33.22
2022-11-12T20:24:54.274Z,34.60
2022-11-12T20:30:16.516Z,32.72
2022-11-12T20:35:39.145Z,38.63
2022-11-12T20:41:04.661Z,32.10
2022-11-12T20:46:28.411Z,30.13
2022-11-12T20:51:50.556Z,34.03
2022-11-12T20:57:14.084Z,34.17
2022-11-12T21:02:36.502Z,24.45
2022-11-12T21:07:58.611Z,24.30
2022-11-12T21:13:23.573Z,21.35
2022-11-12T21:18:45.985Z,25.88
2022-11-12T21:24:09.076Z,24.75
2022-11-12T21:29:32.732Z,24.90
2022-11-12T21:34:55.729Z,25.20
2022-11-12T21:40:18.360Z,23.90
2022-11-12T21:45:47.667Z,23.75
2022-11-12T21:51:11.667Z,25.92
2022-11-12T21:56:34.281Z,26.83
2022-11-12T22:01:57.714Z,24.15
2022-11-12T22:07:19.986Z,26.27
2022-11-12T22:12:58.597Z,27.48
2022-11-12T22:18:26.692Z,22.27
2022-11-12T22:23:51.212Z,22.35
2022-11-12T22:29:13.142Z,18.70
2022-11-12T22:34:36.555Z,14.85
2022-11-12T22:39:58.742Z,19.55
2022-11-12T22:45:20.968Z,22.85
2022-11-12T22:50:45.831Z,21.05
2022-11-12T22:56:09.831Z,17.45
2022-11-12T23:01:34.018Z,17.90
2022-11-12T23:06:57.948Z,18.25
2022-11-12T23:12:20.534Z,19.23
2022-11-12T23:17:42.751Z,19.73
2022-11-12T23:23:06.215Z,20.17
2022-11-12T23:28:28.984Z,18.27
2022-11-12T23:33:53.907Z,16.95
2022-11-12T23:39:20.822Z,16.60
2022-11-12T23:44:43.074Z,17.35
2022-11-12T23:50:06.185Z,19.00
2022-11-12T23:55:30.602Z,24.75
